sensor_id;sensor_type;location;lat;lon;timestamp;P1;durP1;ratioP1;P2;durP2;ratioP2
45065;SDS011;30830;53.704;10.004;2023-02-08T00:00:31;31.35;;;18.80;;
45065;SDS011;30830;53.704;10.004;2023-02-08T00:02:57;26.73;;;17.40;;
45065;SDS011;30830;53.704;10.004;2023-02-08T00:05:22;32.67;;;19.27;;
45065;SDS011;30830;53.704;10.004;2023-02-08T00:07:48;29.85;;;17.73;;
45065;SDS011;30830;53.704;10.004;2023-02-08T00:10:14;31.25;;;18.02;;
45065;SDS011;30830;53.704;10.004;2023-02-08T00:12:39;26.55;;;16.77;;
45065;SDS011;30830;53.704;10.004;2023-02-08T00:15:05;29.13;;;17.70;;
45065;SDS011;30830;53.704;10.004;2023-02-08T00:17:31;28.13;;;18.27;;
45065;SDS011;30830;53.704;10.004;2023-02-08T00:19:56;27.10;;;18.58;;
45065;SDS011;30830;53.704;10.004;2023-02-08T00:22:22;28.85;;;17.40;;
45065;SDS011;30830;53.704;10.004;2023-02-08T00:24:48;24.30;;;16.17;;
45065;SDS011;30830;53.704;10.004;2023-02-08T00:27:15;26.92;;;17.27;;
45065;SDS011;30830;53.704;10.004;2023-02-08T00:29:41;24.55;;;15.35;;
45065;SDS011;30830;53.704;10.004;2023-02-08T00:32:07;26.27;;;17.30;;
45065;SDS011;30830;53.704;10.004;2023-02-08T00:34:32;24.77;;;16.35;;
45065;SDS011;30830;53.704;10.004;2023-02-08T00:36:59;26.63;;;16.98;;
45065;SDS011;30830;53.704;10.004;2023-02-08T00:39:25;24.88;;;16.15;;
45065;SDS011;30830;53.704;10.004;2023-02-08T00:41:50;21.42;;;15.68;;
45065;SDS011;30830;53.704;10.004;2023-02-08T00:44:16;24.20;;;15.45;;
45065;SDS011;30830;53.704;10.004;2023-02-08T00:46:42;26.35;;;16.85;;
45065;SDS011;30830;53.704;10.004;2023-02-08T00:49:08;25.90;;;16.15;;
45065;SDS011;30830;53.704;10.004;2023-02-08T00:51:33;24.55;;;16.05;;
45065;SDS011;30830;53.704;10.004;2023-02-08T00:53:59;25.27;;;16.40;;
45065;SDS011;30830;53.704;10.004;2023-02-08T00:56:24;25.75;;;16.27;;
45065;SDS011;30830;53.704;10.004;2023-02-08T00:58:50;26.88;;;16.95;;
45065;SDS011;30830;53.704;10.004;2023-02-08T01:01:15;23.15;;;15.23;;
45065;SDS011;30830;53.704;10.004;2023-02-08T01:03:41;24.65;;;15.63;;
45065;SDS011;30830;53.704;10.004;2023-02-08T01:06:09;22.38;;;13.65;;
45065;SDS011;30830;53.704;10.004;2023-02-08T01:08:37;32.35;;;15.98;;
45065;SDS011;30830;53.704;10.004;2023-02-08T01:11:06;25.17;;;15.70;;
45065;SDS011;30830;53.704;10.004;2023-02-08T01:13:37;19.80;;;14.35;;
45065;SDS011;30830;53.704;10.004;2023-02-08T01:16:16;27.80;;;15.85;;
45065;SDS011;30830;53.704;10.004;2023-02-08T01:18:44;22.60;;;15.07;;
45065;SDS011;30830;53.704;10.004;2023-02-08T01:21:12;25.15;;;16.05;;
45065;SDS011;30830;53.704;10.004;2023-02-08T01:23:40;23.77;;;15.07;;
45065;SDS011;30830;53.704;10.004;2023-02-08T01:26:06;24.17;;;15.80;;
45065;SDS011;30830;53.704;10.004;2023-02-08T01:28:32;24.20;;;14.98;;
45065;SDS011;30830;53.704;10.004;2023-02-08T01:30:58;28.88;;;16.20;;
45065;SDS011;30830;53.704;10.004;2023-02-08T01:33:28;21.33;;;14.55;;
45065;SDS011;30830;53.704;10.004;2023-02-08T01:35:53;24.65;;;15.85;;
45065;SDS011;30830;53.704;10.004;2023-02-08T01:38:19;26.65;;;14.57;;
45065;SDS011;30830;53.704;10.004;2023-02-08T01:40:45;24.23;;;16.60;;
45065;SDS011;30830;53.704;10.004;2023-02-08T01:43:21;25.98;;;17.27;;
45065;SDS011;30830;53.704;10.004;2023-02-08T01:45:52;26.77;;;16.00;;
45065;SDS011;30830;53.704;10.004;2023-02-08T01:48:35;23.92;;;14.95;;
45065;SDS011;30830;53.704;10.004;2023-02-08T01:51:22;26.38;;;15.65;;
45065;SDS011;30830;53.704;10.004;2023-02-08T01:53:50;21.58;;;14.38;;
45065;SDS011;30830;53.704;10.004;2023-02-08T01:56:20;20.88;;;15.20;;
45065;SDS011;30830;53.704;10.004;2023-02-08T01:58:51;19.08;;;12.90;;
45065;SDS011;30830;53.704;10.004;2023-02-08T02:01:20;27.67;;;15.63;;
45065;SDS011;30830;53.704;10.004;2023-02-08T02:03:46;24.13;;;14.98;;
45065;SDS011;30830;53.704;10.004;2023-02-08T02:06:13;22.17;;;14.52;;
45065;SDS011;30830;53.704;10.004;2023-02-08T02:08:50;23.42;;;15.13;;
45065;SDS011;30830;53.704;10.004;2023-02-08T02:11:21;22.85;;;15.07;;
45065;SDS011;30830;53.704;10.004;2023-02-08T02:13:47;25.58;;;14.93;;
45065;SDS011;30830;53.704;10.004;2023-02-08T02:16:15;24.15;;;15.98;;
45065;SDS011;30830;53.704;10.004;2023-02-08T02:18:41;23.25;;;15.77;;
45065;SDS011;30830;53.704;10.004;2023-02-08T02:32:27;24.80;;;15.43;;
45065;SDS011;30830;53.704;10.004;2023-02-08T02:35:14;21.20;;;13.52;;
45065;SDS011;30830;53.704;10.004;2023-02-08T02:51:39;26.10;;;16.15;;
45065;SDS011;30830;53.704;10.004;2023-02-08T02:54:19;27.02;;;16.60;;
45065;SDS011;30830;53.704;10.004;2023-02-08T02:56:51;24.05;;;15.93;;
45065;SDS011;30830;53.704;10.004;2023-02-08T02:59:21;22.48;;;15.70;;
45065;SDS011;30830;53.704;10.004;2023-02-08T03:01:47;24.15;;;15.90;;
45065;SDS011;30830;53.704;10.004;2023-02-08T03:04:14;26.70;;;17.98;;
45065;SDS011;30830;53.704;10.004;2023-02-08T03:07:04;26.40;;;16.58;;
45065;SDS011;30830;53.704;10.004;2023-02-08T03:12:50;28.42;;;17.35;;
45065;SDS011;30830;53.704;10.004;2023-02-08T03:24:18;28.33;;;16.42;;
45065;SDS011;30830;53.704;10.004;2023-02-08T03:29:40;26.92;;;17.40;;
45065;SDS011;30830;53.704;10.004;2023-02-08T03:32:08;29.13;;;15.80;;
45065;SDS011;30830;53.704;10.004;2023-02-08T03:37:12;25.50;;;16.58;;
45065;SDS011;30830;53.704;10.004;2023-02-08T03:39:44;29.55;;;17.60;;
45065;SDS011;30830;53.704;10.004;2023-02-08T03:42:14;26.50;;;16.90;;
45065;SDS011;30830;53.704;10.004;2023-02-08T03:44:45;27.55;;;18.23;;
45065;SDS011;30830;53.704;10.004;2023-02-08T03:47:34;23.25;;;15.95;;
45065;SDS011;30830;53.704;10.004;2023-02-08T03:50:04;31.35;;;18.40;;
45065;SDS011;30830;53.704;10.004;2023-02-08T03:52:33;29.30;;;17.30;;
45065;SDS011;30830;53.704;10.004;2023-02-08T03:55:04;29.45;;;18.02;;
45065;SDS011;30830;53.704;10.004;2023-02-08T03:57:42;27.70;;;16.83;;
45065;SDS011;30830;53.704;10.004;2023-02-08T04:00:12;30.27;;;17.80;;
45065;SDS011;30830;53.704;10.004;2023-02-08T04:02:42;29.13;;;16.45;;
45065;SDS011;30830;53.704;10.004;2023-02-08T04:05:32;27.02;;;17.10;;
45065;SDS011;30830;53.704;10.004;2023-02-08T04:07:58;26.85;;;17.35;;
45065;SDS011;30830;53.704;10.004;2023-02-08T04:10:24;28.92;;;18.02;;
45065;SDS011;30830;53.704;10.004;2023-02-08T04:12:49;24.50;;;16.23;;
45065;SDS011;30830;53.704;10.004;2023-02-08T04:15:15;27.98;;;16.55;;
45065;SDS011;30830;53.704;10.004;2023-02-08T04:17:41;28.67;;;16.95;;
45065;SDS011;30830;53.704;10.004;2023-02-08T04:20:06;33.58;;;18.67;;
45065;SDS011;30830;53.704;10.004;2023-02-08T04:22:32;26.92;;;16.88;;
45065;SDS011;30830;53.704;10.004;2023-02-08T04:24:58;26.70;;;17.15;;
45065;SDS011;30830;53.704;10.004;2023-02-08T04:27:24;29.05;;;17.50;;
45065;SDS011;30830;53.704;10.004;2023-02-08T04:29:49;29.35;;;17.27;;
45065;SDS011;30830;53.704;10.004;2023-02-08T04:32:15;24.92;;;15.55;;
45065;SDS011;30830;53.704;10.004;2023-02-08T04:34:40;28.92;;;18.02;;
45065;SDS011;30830;53.704;10.004;2023-02-08T04:37:06;32.72;;;18.85;;
45065;SDS011;30830;53.704;10.004;2023-02-08T04:39:33;27.45;;;17.42;;
45065;SDS011;30830;53.704;10.004;2023-02-08T04:41:58;24.80;;;17.65;;
45065;SDS011;30830;53.704;10.004;2023-02-08T04:44:24;31.85;;;18.80;;
45065;SDS011;30830;53.704;10.004;2023-02-08T04:46:51;31.23;;;19.02;;
45065;SDS011;30830;53.704;10.004;2023-02-08T04:49:16;27.95;;;17.05;;
45065;SDS011;30830;53.704;10.004;2023-02-08T04:51:42;30.55;;;17.75;;
45065;SDS011;30830;53.704;10.004;2023-02-08T04:54:07;29.95;;;18.35;;
45065;SDS011;30830;53.704;10.004;2023-02-08T04:56:33;32.47;;;19.23;;
45065;SDS011;30830;53.704;10.004;2023-02-08T04:58:59;30.75;;;19.17;;
45065;SDS011;30830;53.704;10.004;2023-02-08T05:01:25;30.70;;;18.10;;
45065;SDS011;30830;53.704;10.004;2023-02-08T05:03:51;35.40;;;19.80;;
45065;SDS011;30830;53.704;10.004;2023-02-08T05:06:16;27.13;;;17.45;;
45065;SDS011;30830;53.704;10.004;2023-02-08T05:08:42;30.40;;;18.30;;
45065;SDS011;30830;53.704;10.004;2023-02-08T05:11:07;29.95;;;17.98;;
45065;SDS011;30830;53.704;10.004;2023-02-08T05:13:33;30.70;;;18.95;;
45065;SDS011;30830;53.704;10.004;2023-02-08T05:15:58;30.13;;;18.27;;
45065;SDS011;30830;53.704;10.004;2023-02-08T05:18:24;29.13;;;18.63;;
45065;SDS011;30830;53.704;10.004;2023-02-08T05:20:53;28.85;;;17.65;;
45065;SDS011;30830;53.704;10.004;2023-02-08T05:23:20;31.15;;;18.10;;
45065;SDS011;30830;53.704;10.004;2023-02-08T05:25:46;30.60;;;19.17;;
45065;SDS011;30830;53.704;10.004;2023-02-08T05:28:11;30.42;;;17.90;;
45065;SDS011;30830;53.704;10.004;2023-02-08T05:30:37;35.00;;;18.75;;
45065;SDS011;30830;53.704;10.004;2023-02-08T05:33:02;35.83;;;19.92;;
45065;SDS011;30830;53.704;10.004;2023-02-08T05:35:28;30.88;;;19.35;;
45065;SDS011;30830;53.704;10.004;2023-02-08T05:37:54;33.58;;;19.67;;
45065;SDS011;30830;53.704;10.004;2023-02-08T05:40:19;32.90;;;19.33;;
45065;SDS011;30830;53.704;10.004;2023-02-08T05:42:45;31.13;;;18.65;;
45065;SDS011;30830;53.704;10.004;2023-02-08T05:45:12;33.22;;;19.70;;
45065;SDS011;30830;53.704;10.004;2023-02-08T05:47:38;32.25;;;18.70;;
45065;SDS011;30830;53.704;10.004;2023-02-08T05:50:03;30.38;;;19.20;;
45065;SDS011;30830;53.704;10.004;2023-02-08T05:52:29;34.90;;;20.35;;
45065;SDS011;30830;53.704;10.004;2023-02-08T05:54:55;36.38;;;21.10;;
45065;SDS011;30830;53.704;10.004;2023-02-08T05:57:20;34.45;;;20.27;;
45065;SDS011;30830;53.704;10.004;2023-02-08T05:59:46;33.72;;;19.52;;
45065;SDS011;30830;53.704;10.004;2023-02-08T06:02:12;32.60;;;20.42;;
45065;SDS011;30830;53.704;10.004;2023-02-08T06:04:38;38.72;;;20.95;;
45065;SDS011;30830;53.704;10.004;2023-02-08T06:07:03;34.38;;;18.77;;
45065;SDS011;30830;53.704;10.004;2023-02-08T06:09:29;38.53;;;21.55;;
45065;SDS011;30830;53.704;10.004;2023-02-08T06:11:55;32.67;;;20.38;;
45065;SDS011;30830;53.704;10.004;2023-02-08T06:14:21;41.97;;;21.45;;
45065;SDS011;30830;53.704;10.004;2023-02-08T06:16:46;35.05;;;20.65;;
45065;SDS011;30830;53.704;10.004;2023-02-08T06:19:12;34.70;;;20.55;;
45065;SDS011;30830;53.704;10.004;2023-02-08T06:21:38;31.48;;;19.40;;
45065;SDS011;30830;53.704;10.004;2023-02-08T06:24:03;37.90;;;20.95;;
45065;SDS011;30830;53.704;10.004;2023-02-08T06:26:30;35.58;;;19.17;;
45065;SDS011;30830;53.704;10.004;2023-02-08T06:28:57;36.90;;;19.88;;
45065;SDS011;30830;53.704;10.004;2023-02-08T06:31:23;35.33;;;20.73;;
45065;SDS011;30830;53.704;10.004;2023-02-08T06:33:49;34.45;;;19.98;;
45065;SDS011;30830;53.704;10.004;2023-02-08T06:36:14;34.13;;;19.92;;
45065;SDS011;30830;53.704;10.004;2023-02-08T06:38:40;39.42;;;21.80;;
45065;SDS011;30830;53.704;10.004;2023-02-08T06:41:06;41.28;;;21.40;;
45065;SDS011;30830;53.704;10.004;2023-02-08T06:43:32;35.45;;;21.00;;
45065;SDS011;30830;53.704;10.004;2023-02-08T06:45:58;33.28;;;20.02;;
45065;SDS011;30830;53.704;10.004;2023-02-08T06:48:23;38.63;;;21.50;;
45065;SDS011;30830;53.704;10.004;2023-02-08T06:50:51;40.33;;;22.13;;
45065;SDS011;30830;53.704;10.004;2023-02-08T06:53:17;29.90;;;18.83;;
45065;SDS011;30830;53.704;10.004;2023-02-08T06:55:46;40.33;;;21.20;;
45065;SDS011;30830;53.704;10.004;2023-02-08T06:58:15;39.40;;;22.58;;
45065;SDS011;30830;53.704;10.004;2023-02-08T07:00:41;39.85;;;19.42;;
45065;SDS011;30830;53.704;10.004;2023-02-08T07:03:09;35.65;;;21.70;;
45065;SDS011;30830;53.704;10.004;2023-02-08T07:05:36;39.63;;;22.00;;
45065;SDS011;30830;53.704;10.004;2023-02-08T07:08:02;34.80;;;21.45;;
45065;SDS011;30830;53.704;10.004;2023-02-08T07:10:28;35.55;;;20.08;;
45065;SDS011;30830;53.704;10.004;2023-02-08T07:12:54;41.35;;;22.20;;
45065;SDS011;30830;53.704;10.004;2023-02-08T07:15:20;41.72;;;22.02;;
45065;SDS011;30830;53.704;10.004;2023-02-08T07:17:45;46.63;;;22.52;;
45065;SDS011;30830;53.704;10.004;2023-02-08T07:20:11;47.78;;;22.85;;
45065;SDS011;30830;53.704;10.004;2023-02-08T07:22:38;40.13;;;22.70;;
45065;SDS011;30830;53.704;10.004;2023-02-08T07:25:04;37.83;;;22.77;;
45065;SDS011;30830;53.704;10.004;2023-02-08T07:27:31;39.70;;;21.88;;
45065;SDS011;30830;53.704;10.004;2023-02-08T07:29:57;40.00;;;22.40;;
45065;SDS011;30830;53.704;10.004;2023-02-08T07:32:22;43.28;;;23.75;;
45065;SDS011;30830;53.704;10.004;2023-02-08T07:34:48;34.03;;;20.75;;
45065;SDS011;30830;53.704;10.004;2023-02-08T07:37:13;44.45;;;22.85;;
45065;SDS011;30830;53.704;10.004;2023-02-08T07:39:39;35.40;;;22.70;;
45065;SDS011;30830;53.704;10.004;2023-02-08T07:42:05;39.22;;;22.55;;
45065;SDS011;30830;53.704;10.004;2023-02-08T07:44:32;43.42;;;22.05;;
45065;SDS011;30830;53.704;10.004;2023-02-08T07:46:58;37.78;;;22.75;;
45065;SDS011;30830;53.704;10.004;2023-02-08T07:49:25;38.80;;;22.90;;
45065;SDS011;30830;53.704;10.004;2023-02-08T07:51:51;41.38;;;20.98;;
45065;SDS011;30830;53.704;10.004;2023-02-08T07:54:16;40.25;;;21.98;;
45065;SDS011;30830;53.704;10.004;2023-02-08T07:56:42;41.33;;;22.90;;
45065;SDS011;30830;53.704;10.004;2023-02-08T07:59:07;39.85;;;22.05;;
45065;SDS011;30830;53.704;10.004;2023-02-08T08:01:33;39.28;;;21.83;;
45065;SDS011;30830;53.704;10.004;2023-02-08T08:03:59;46.00;;;24.70;;
45065;SDS011;30830;53.704;10.004;2023-02-08T08:06:24;46.08;;;24.08;;
45065;SDS011;30830;53.704;10.004;2023-02-08T08:08:50;34.53;;;22.15;;
45065;SDS011;30830;53.704;10.004;2023-02-08T08:11:16;41.55;;;24.20;;
45065;SDS011;30830;53.704;10.004;2023-02-08T08:13:43;39.83;;;22.73;;
45065;SDS011;30830;53.704;10.004;2023-02-08T08:16:08;38.92;;;22.73;;
45065;SDS011;30830;53.704;10.004;2023-02-08T08:18:34;37.53;;;22.77;;
45065;SDS011;30830;53.704;10.004;2023-02-08T08:21:00;39.95;;;21.60;;
45065;SDS011;30830;53.704;10.004;2023-02-08T08:23:26;43.00;;;23.55;;
45065;SDS011;30830;53.704;10.004;2023-02-08T08:25:53;43.00;;;23.27;;
45065;SDS011;30830;53.704;10.004;2023-02-08T08:28:18;45.65;;;23.58;;
45065;SDS011;30830;53.704;10.004;2023-02-08T08:30:44;42.08;;;22.73;;
45065;SDS011;30830;53.704;10.004;2023-02-08T08:33:11;45.13;;;24.70;;
45065;SDS011;30830;53.704;10.004;2023-02-08T08:35:38;46.15;;;25.38;;
45065;SDS011;30830;53.704;10.004;2023-02-08T08:38:04;45.53;;;24.88;;
45065;SDS011;30830;53.704;10.004;2023-02-08T08:40:30;43.15;;;24.73;;
45065;SDS011;30830;53.704;10.004;2023-02-08T08:42:56;41.22;;;25.10;;
45065;SDS011;30830;53.704;10.004;2023-02-08T08:45:21;45.60;;;24.02;;
45065;SDS011;30830;53.704;10.004;2023-02-08T08:47:47;41.35;;;24.35;;
45065;SDS011;30830;53.704;10.004;2023-02-08T08:50:13;48.58;;;24.60;;
45065;SDS011;30830;53.704;10.004;2023-02-08T08:52:39;42.08;;;24.63;;
45065;SDS011;30830;53.704;10.004;2023-02-08T08:55:06;42.22;;;26.30;;
45065;SDS011;30830;53.704;10.004;2023-02-08T08:57:31;42.58;;;24.77;;
45065;SDS011;30830;53.704;10.004;2023-02-08T08:59:57;48.63;;;25.55;;
45065;SDS011;30830;53.704;10.004;2023-02-08T09:02:22;51.35;;;26.08;;
45065;SDS011;30830;53.704;10.004;2023-02-08T09:04:48;43.55;;;23.90;;
45065;SDS011;30830;53.704;10.004;2023-02-08T09:07:14;46.63;;;25.52;;
45065;SDS011;30830;53.704;10.004;2023-02-08T09:09:39;43.33;;;24.85;;
45065;SDS011;30830;53.704;10.004;2023-02-08T09:12:05;41.70;;;24.60;;
45065;SDS011;30830;53.704;10.004;2023-02-08T09:14:32;45.38;;;24.45;;
45065;SDS011;30830;53.704;10.004;2023-02-08T09:16:58;41.15;;;23.73;;
45065;SDS011;30830;53.704;10.004;2023-02-08T09:19:23;42.33;;;24.45;;
45065;SDS011;30830;53.704;10.004;2023-02-08T09:21:49;44.17;;;24.02;;
45065;SDS011;30830;53.704;10.004;2023-02-08T09:24:15;39.92;;;23.48;;
45065;SDS011;30830;53.704;10.004;2023-02-08T09:26:40;45.85;;;24.67;;
45065;SDS011;30830;53.704;10.004;2023-02-08T09:29:06;42.38;;;23.52;;
45065;SDS011;30830;53.704;10.004;2023-02-08T09:31:33;40.28;;;22.88;;
45065;SDS011;30830;53.704;10.004;2023-02-08T09:34:03;37.35;;;22.60;;
45065;SDS011;30830;53.704;10.004;2023-02-08T09:36:37;43.80;;;24.70;;
45065;SDS011;30830;53.704;10.004;2023-02-08T09:39:06;36.88;;;20.70;;
45065;SDS011;30830;53.704;10.004;2023-02-08T09:41:52;42.72;;;22.98;;
45065;SDS011;30830;53.704;10.004;2023-02-08T09:44:49;40.58;;;22.95;;
45065;SDS011;30830;53.704;10.004;2023-02-08T09:50:00;38.38;;;20.88;;
45065;SDS011;30830;53.704;10.004;2023-02-08T09:53:31;36.42;;;20.77;;
45065;SDS011;30830;53.704;10.004;2023-02-08T09:55:43;36.63;;;20.45;;
45065;SDS011;30830;53.704;10.004;2023-02-08T09:58:18;35.45;;;21.48;;
45065;SDS011;30830;53.704;10.004;2023-02-08T10:00:50;35.17;;;21.30;;
45065;SDS011;30830;53.704;10.004;2023-02-08T10:03:28;30.75;;;18.20;;
45065;SDS011;30830;53.704;10.004;2023-02-08T10:05:58;35.05;;;19.40;;
45065;SDS011;30830;53.704;10.004;2023-02-08T10:08:25;38.15;;;21.05;;
45065;SDS011;30830;53.704;10.004;2023-02-08T10:11:03;31.55;;;19.58;;
45065;SDS011;30830;53.704;10.004;2023-02-08T10:16:27;32.28;;;19.55;;
45065;SDS011;30830;53.704;10.004;2023-02-08T10:22:32;27.33;;;16.98;;
45065;SDS011;30830;53.704;10.004;2023-02-08T10:25:10;28.80;;;16.77;;
45065;SDS011;30830;53.704;10.004;2023-02-08T10:30:36;28.23;;;17.52;;
45065;SDS011;30830;53.704;10.004;2023-02-08T10:33:21;27.92;;;16.95;;
45065;SDS011;30830;53.704;10.004;2023-02-08T10:35:55;27.67;;;16.58;;
45065;SDS011;30830;53.704;10.004;2023-02-08T10:38:25;24.05;;;15.88;;
45065;SDS011;30830;53.704;10.004;2023-02-08T10:40:57;26.38;;;16.27;;
45065;SDS011;30830;53.704;10.004;2023-02-08T10:48:39;25.00;;;16.10;;
45065;SDS011;30830;53.704;10.004;2023-02-08T10:51:14;24.17;;;15.30;;
45065;SDS011;30830;53.704;10.004;2023-02-08T10:53:42;22.52;;;13.93;;
45065;SDS011;30830;53.704;10.004;2023-02-08T10:56:17;22.48;;;15.40;;
45065;SDS011;30830;53.704;10.004;2023-02-08T10:58:48;25.80;;;15.10;;
45065;SDS011;30830;53.704;10.004;2023-02-08T11:01:14;27.52;;;15.95;;
45065;SDS011;30830;53.704;10.004;2023-02-08T11:03:41;25.63;;;15.18;;
45065;SDS011;30830;53.704;10.004;2023-02-08T11:06:25;21.45;;;12.82;;
45065;SDS011;30830;53.704;10.004;2023-02-08T11:08:54;23.63;;;14.00;;
45065;SDS011;30830;53.704;10.004;2023-02-08T11:11:20;25.42;;;15.20;;
45065;SDS011;30830;53.704;10.004;2023-02-08T11:13:47;23.08;;;13.57;;
45065;SDS011;30830;53.704;10.004;2023-02-08T11:16:21;21.90;;;13.05;;
45065;SDS011;30830;53.704;10.004;2023-02-08T11:21:21;27.88;;;14.48;;
45065;SDS011;30830;53.704;10.004;2023-02-08T11:23:50;22.42;;;14.70;;
45065;SDS011;30830;53.704;10.004;2023-02-08T11:26:19;26.83;;;15.65;;
45065;SDS011;30830;53.704;10.004;2023-02-08T11:31:26;25.30;;;14.07;;
45065;SDS011;30830;53.704;10.004;2023-02-08T11:33:56;24.08;;;15.30;;
45065;SDS011;30830;53.704;10.004;2023-02-08T11:36:22;25.13;;;15.02;;
45065;SDS011;30830;53.704;10.004;2023-02-08T11:38:48;27.35;;;15.80;;
45065;SDS011;30830;53.704;10.004;2023-02-08T11:41:14;26.73;;;15.85;;
45065;SDS011;30830;53.704;10.004;2023-02-08T11:43:43;24.88;;;15.18;;
45065;SDS011;30830;53.704;10.004;2023-02-08T11:46:26;27.83;;;15.73;;
45065;SDS011;30830;53.704;10.004;2023-02-08T11:48:53;23.90;;;14.60;;
45065;SDS011;30830;53.704;10.004;2023-02-08T11:51:37;27.80;;;14.75;;
45065;SDS011;30830;53.704;10.004;2023-02-08T11:54:03;24.35;;;13.32;;
45065;SDS011;30830;53.704;10.004;2023-02-08T11:56:30;23.40;;;14.68;;
45065;SDS011;30830;53.704;10.004;2023-02-08T12:01:41;24.38;;;12.98;;
45065;SDS011;30830;53.704;10.004;2023-02-08T12:04:11;21.58;;;12.63;;
45065;SDS011;30830;53.704;10.004;2023-02-08T12:11:54;25.75;;;14.85;;
45065;SDS011;30830;53.704;10.004;2023-02-08T12:17:25;24.92;;;14.45;;
45065;SDS011;30830;53.704;10.004;2023-02-08T12:28:41;23.88;;;12.70;;
45065;SDS011;30830;53.704;10.004;2023-02-08T12:40:01;22.70;;;13.30;;
45065;SDS011;30830;53.704;10.004;2023-02-08T12:43:02;20.95;;;12.80;;
45065;SDS011;30830;53.704;10.004;2023-02-08T12:51:28;20.02;;;11.90;;
45065;SDS011;30830;53.704;10.004;2023-02-08T12:54:03;23.35;;;12.93;;
45065;SDS011;30830;53.704;10.004;2023-02-08T12:56:35;20.85;;;12.43;;
45065;SDS011;30830;53.704;10.004;2023-02-08T12:59:05;21.17;;;11.70;;
45065;SDS011;30830;53.704;10.004;2023-02-08T13:01:41;19.58;;;11.50;;
45065;SDS011;30830;53.704;10.004;2023-02-08T13:04:14;21.38;;;11.07;;
45065;SDS011;30830;53.704;10.004;2023-02-08T13:06:52;19.20;;;11.35;;
45065;SDS011;30830;53.704;10.004;2023-02-08T13:14:32;21.33;;;10.90;;
45065;SDS011;30830;53.704;10.004;2023-02-08T13:17:00;18.77;;;11.25;;
45065;SDS011;30830;53.704;10.004;2023-02-08T13:19:57;22.38;;;11.35;;
45065;SDS011;30830;53.704;10.004;2023-02-08T13:27:47;22.48;;;9.65;;
45065;SDS011;30830;53.704;10.004;2023-02-08T13:30:17;20.98;;;10.80;;
45065;SDS011;30830;53.704;10.004;2023-02-08T13:32:44;17.20;;;10.65;;
45065;SDS011;30830;53.704;10.004;2023-02-08T13:35:15;20.05;;;10.90;;
45065;SDS011;30830;53.704;10.004;2023-02-08T13:37:51;22.35;;;11.50;;
45065;SDS011;30830;53.704;10.004;2023-02-08T13:40:24;18.63;;;10.90;;
45065;SDS011;30830;53.704;10.004;2023-02-08T13:45:34;16.52;;;10.18;;
45065;SDS011;30830;53.704;10.004;2023-02-08T13:48:04;16.40;;;10.13;;
45065;SDS011;30830;53.704;10.004;2023-02-08T13:50:47;17.95;;;10.02;;
45065;SDS011;30830;53.704;10.004;2023-02-08T13:53:16;16.98;;;9.40;;
45065;SDS011;30830;53.704;10.004;2023-02-08T14:03:21;17.33;;;9.05;;
45065;SDS011;30830;53.704;10.004;2023-02-08T14:05:57;19.13;;;10.07;;
45065;SDS011;30830;53.704;10.004;2023-02-08T14:08:31;15.25;;;9.00;;
45065;SDS011;30830;53.704;10.004;2023-02-08T14:16:23;14.10;;;8.40;;
45065;SDS011;30830;53.704;10.004;2023-02-08T14:18:58;14.48;;;9.40;;
45065;SDS011;30830;53.704;10.004;2023-02-08T14:21:39;16.60;;;9.30;;
45065;SDS011;30830;53.704;10.004;2023-02-08T14:24:28;17.77;;;9.63;;
45065;SDS011;30830;53.704;10.004;2023-02-08T14:27:07;16.55;;;9.30;;
45065;SDS011;30830;53.704;10.004;2023-02-08T14:29:40;17.02;;;8.93;;
45065;SDS011;30830;53.704;10.004;2023-02-08T14:32:06;14.63;;;8.45;;
45065;SDS011;30830;53.704;10.004;2023-02-08T14:34:33;13.18;;;8.82;;
45065;SDS011;30830;53.704;10.004;2023-02-08T14:37:03;15.02;;;8.60;;
45065;SDS011;30830;53.704;10.004;2023-02-08T14:39:48;12.20;;;7.28;;
45065;SDS011;30830;53.704;10.004;2023-02-08T14:45:49;20.38;;;10.68;;
45065;SDS011;30830;53.704;10.004;2023-02-08T14:48:23;17.42;;;9.85;;
45065;SDS011;30830;53.704;10.004;2023-02-08T14:58:35;16.08;;;9.13;;
45065;SDS011;30830;53.704;10.004;2023-02-08T15:01:10;13.02;;;8.00;;
45065;SDS011;30830;53.704;10.004;2023-02-08T15:03:44;13.45;;;8.05;;
45065;SDS011;30830;53.704;10.004;2023-02-08T15:08:42;16.67;;;9.18;;
45065;SDS011;30830;53.704;10.004;2023-02-08T15:11:18;14.15;;;8.43;;
45065;SDS011;30830;53.704;10.004;2023-02-08T15:13:49;12.73;;;8.20;;
45065;SDS011;30830;53.704;10.004;2023-02-08T15:16:16;13.13;;;8.07;;
45065;SDS011;30830;53.704;10.004;2023-02-08T15:18:46;16.48;;;9.38;;
45065;SDS011;30830;53.704;10.004;2023-02-08T15:21:18;15.65;;;8.98;;
45065;SDS011;30830;53.704;10.004;2023-02-08T15:23:58;18.10;;;10.35;;
45065;SDS011;30830;53.704;10.004;2023-02-08T15:26:47;14.40;;;9.00;;
45065;SDS011;30830;53.704;10.004;2023-02-08T15:29:19;12.77;;;9.02;;
45065;SDS011;30830;53.704;10.004;2023-02-08T15:31:49;14.70;;;9.10;;
45065;SDS011;30830;53.704;10.004;2023-02-08T15:34:16;15.52;;;8.77;;
45065;SDS011;30830;53.704;10.004;2023-02-08T15:36:45;18.38;;;10.10;;
45065;SDS011;30830;53.704;10.004;2023-02-08T15:41:59;16.35;;;9.20;;
45065;SDS011;30830;53.704;10.004;2023-02-08T15:44:27;16.85;;;10.10;;
45065;SDS011;30830;53.704;10.004;2023-02-08T15:46:55;14.85;;;9.50;;
45065;SDS011;30830;53.704;10.004;2023-02-08T15:49:45;18.63;;;9.85;;
45065;SDS011;30830;53.704;10.004;2023-02-08T15:52:16;20.02;;;9.68;;
45065;SDS011;30830;53.704;10.004;2023-02-08T15:54:44;12.77;;;8.85;;
45065;SDS011;30830;53.704;10.004;2023-02-08T15:57:30;18.42;;;11.18;;
45065;SDS011;30830;53.704;10.004;2023-02-08T16:00:00;16.08;;;10.02;;
45065;SDS011;30830;53.704;10.004;2023-02-08T16:02:33;19.80;;;10.68;;
45065;SDS011;30830;53.704;10.004;2023-02-08T16:04:59;16.55;;;9.85;;
45065;SDS011;30830;53.704;10.004;2023-02-08T16:07:30;18.92;;;10.27;;
45065;SDS011;30830;53.704;10.004;2023-02-08T16:10:02;17.67;;;9.75;;
45065;SDS011;30830;53.704;10.004;2023-02-08T16:12:29;14.73;;;9.93;;
45065;SDS011;30830;53.704;10.004;2023-02-08T16:14:55;20.33;;;10.88;;
45065;SDS011;30830;53.704;10.004;2023-02-08T16:17:41;22.33;;;11.10;;
45065;SDS011;30830;53.704;10.004;2023-02-08T16:20:24;16.40;;;11.02;;
45065;SDS011;30830;53.704;10.004;2023-02-08T16:22:54;19.85;;;11.32;;
45065;SDS011;30830;53.704;10.004;2023-02-08T16:25:31;18.48;;;11.73;;
45065;SDS011;30830;53.704;10.004;2023-02-08T16:27:58;18.13;;;10.73;;
45065;SDS011;30830;53.704;10.004;2023-02-08T16:30:23;16.42;;;9.88;;
45065;SDS011;30830;53.704;10.004;2023-02-08T16:32:49;17.48;;;10.60;;
45065;SDS011;30830;53.704;10.004;2023-02-08T16:35:33;19.40;;;10.73;;
45065;SDS011;30830;53.704;10.004;2023-02-08T16:38:02;17.48;;;10.32;;
45065;SDS011;30830;53.704;10.004;2023-02-08T16:40:52;20.23;;;11.57;;
45065;SDS011;30830;53.704;10.004;2023-02-08T16:48:40;19.55;;;11.25;;
45065;SDS011;30830;53.704;10.004;2023-02-08T16:51:13;20.10;;;11.35;;